Time;durP1;ratioP1;P1;durP2;ratioP2;P2;SDS_P1;SDS_P2;PMS_P1;PMS_P2;Temp;Humidity;BMP_temperature;BMP_pressure;BME280_temperature;BME280_humidity;BME280_pressure;Samples;Min_cycle;Max_cycle;Signal;HPM_P1;HPM_P2
2022/07/17 00:01:27;;;;;;;5.88;1.90;;;;;;;17.08;58.59;102735.75;5022884;28;20124;-58
2022/07/17 00:03:52;;;;;;;8.85;2.03;;;;;;;17.08;58.89;102740.97;5018835;28;20104;-56
2022/07/17 00:06:18;;;;;;;7.22;1.80;;;;;;;17.09;59.13;102738.41;5019266;28;20025;-60
2022/07/17 00:08:43;;;;;;;7.60;2.13;;;;;;;17.06;59.13;102740.03;5026823;28;20100;-56
2022/07/17 00:11:09;;;;;;;8.43;2.00;;;;;;;16.95;59.41;102728.41;5022870;28;20033;-60
2022/07/17 00:13:34;;;;;;;5.68;1.88;;;;;;;16.86;59.94;102729.88;5025179;28;20025;-60
2022/07/17 00:15:59;;;;;;;7.68;2.08;;;;;;;16.83;59.68;102728.91;5023513;28;20058;-60
2022/07/17 00:18:25;;;;;;;5.65;1.80;;;;;;;16.86;59.77;102729.00;5026524;28;20045;-59
2022/07/17 00:20:50;;;;;;;5.18;1.73;;;;;;;16.80;59.71;102739.19;5009812;28;20033;-57
2022/07/17 00:23:16;;;;;;;6.50;2.00;;;;;;;16.76;59.78;102734.75;5003214;28;20033;-56
2022/07/17 00:25:41;;;;;;;3.17;1.50;;;;;;;16.79;59.65;102733.13;5022677;28;20030;-52
2022/07/17 00:28:06;;;;;;;3.95;1.70;;;;;;;16.76;59.79;102732.16;5022759;28;20034;-60
2022/07/17 00:30:32;;;;;;;8.60;1.85;;;;;;;16.80;59.82;102734.00;5019177;28;20059;-59
2022/07/17 00:32:57;;;;;;;7.60;1.98;;;;;;;16.82;59.90;102741.03;5022173;28;20037;-55
2022/07/17 00:35:24;;;;;;;8.85;1.92;;;;;;;16.77;59.93;102740.00;5020188;28;20046;-59
2022/07/17 00:37:49;;;;;;;5.75;2.00;;;;;;;16.70;60.56;102731.91;5019362;28;20064;-59
2022/07/17 00:40:24;;;;;;;5.75;1.75;;;;;;;16.75;59.98;102735.59;5017167;28;20033;-59
2022/07/17 00:42:51;;;;;;;6.20;1.75;;;;;;;16.65;60.54;102743.88;5023453;28;20482;-60
2022/07/17 00:45:17;;;;;;;8.93;2.10;;;;;;;16.61;60.68;102735.97;5013674;28;20129;-57
2022/07/17 00:47:52;;;;;;;4.70;2.00;;;;;;;16.60;60.43;102731.59;5021773;28;20120;-55
2022/07/17 00:50:19;;;;;;;6.30;2.10;;;;;;;16.53;61.16;102739.16;5020511;28;20233;-60
2022/07/17 00:52:44;;;;;;;5.18;1.90;;;;;;;16.53;60.89;102739.16;5026121;28;20025;-59
2022/07/17 00:55:12;;;;;;;5.93;2.10;;;;;;;16.45;61.24;102740.63;5023406;28;20410;-60
2022/07/17 00:57:40;;;;;;;7.00;2.00;;;;;;;16.38;61.56;102746.41;5023190;28;20473;-59
2022/07/17 01:00:09;;;;;;;8.00;2.22;;;;;;;16.37;61.57;102742.94;5020515;28;20021;-57
2022/07/17 01:02:35;;;;;;;6.88;2.30;;;;;;;16.34;61.70;102742.84;5021084;28;20401;-58
2022/07/17 01:05:00;;;;;;;4.90;1.75;;;;;;;16.28;61.71;102729.66;5018360;28;20026;-53
2022/07/17 01:07:26;;;;;;;5.43;2.17;;;;;;;16.31;62.09;102730.63;5028078;28;20045;-55
2022/07/17 01:09:51;;;;;;;7.80;1.90;;;;;;;16.24;61.95;102725.16;5023410;28;20037;-61
2022/07/17 01:12:17;;;;;;;6.93;2.08;;;;;;;16.19;62.26;102727.59;5023546;28;20090;-61
2022/07/17 01:14:43;;;;;;;6.40;1.92;;;;;;;16.20;62.50;102726.81;5023714;28;20033;-59
2022/07/17 01:17:09;;;;;;;7.38;1.90;;;;;;;16.15;62.90;102722.28;5019498;28;20041;-59
2022/07/17 01:19:35;;;;;;;5.82;2.00;;;;;;;16.14;62.77;102724.00;5025651;28;20033;-59
2022/07/17 01:22:00;;;;;;;11.68;2.38;;;;;;;16.15;62.34;102723.16;5026443;28;20052;-59
2022/07/17 01:24:26;;;;;;;8.48;2.08;;;;;;;16.08;62.46;102723.78;5025316;28;20039;-58
2022/07/17 01:26:51;;;;;;;6.38;2.10;;;;;;;16.01;62.61;102724.38;5029017;28;20029;-59
2022/07/17 01:29:17;;;;;;;5.10;2.22;;;;;;;15.96;62.99;102728.53;5021938;28;20029;-60
2022/07/17 01:31:42;;;;;;;10.02;1.98;;;;;;;15.99;63.18;102719.13;5026013;28;20116;-56
2022/07/17 01:34:09;;;;;;;11.32;2.53;;;;;;;15.95;63.52;102722.44;5025018;28;20392;-58
2022/07/17 01:36:36;;;;;;;6.47;1.97;;;;;;;15.93;63.26;102716.31;5020370;28;20095;-58
2022/07/17 01:39:02;;;;;;;6.15;1.90;;;;;;;15.93;63.42;102713.72;5019437;28;20297;-59
2022/07/17 01:41:28;;;;;;;8.38;2.10;;;;;;;15.88;63.30;102715.25;5022146;28;20482;-59
2022/07/17 01:43:53;;;;;;;6.65;2.15;;;;;;;15.82;63.37;102722.81;5024827;28;20045;-60
2022/07/17 01:46:19;;;;;;;9.23;2.22;;;;;;;15.80;64.11;102724.50;5020617;28;20470;-59
2022/07/17 01:48:44;;;;;;;7.78;2.10;;;;;;;15.74;63.63;102721.69;5027725;28;20034;-57
2022/07/17 01:51:10;;;;;;;8.30;2.38;;;;;;;15.70;63.95;102725.84;5021882;28;20041;-58
2022/07/17 01:53:35;;;;;;;4.00;2.08;;;;;;;15.76;64.21;102732.97;5019409;28;20037;-60
2022/07/17 01:56:00;;;;;;;9.02;2.60;;;;;;;15.71;64.01;102737.13;5019358;28;20544;-60
2022/07/17 01:58:26;;;;;;;5.90;2.08;;;;;;;15.70;63.95;102738.81;5021796;28;20441;-53
2022/07/17 02:00:52;;;;;;;5.15;2.15;;;;;;;15.67;63.89;102733.53;5019577;28;20026;-61
2022/07/17 02:03:18;;;;;;;6.05;1.98;;;;;;;15.63;63.79;102725.59;5016635;28;20041;-59
2022/07/17 02:05:43;;;;;;;3.85;1.80;;;;;;;15.61;64.03;102730.69;5019751;28;21048;-59
2022/07/17 02:08:09;;;;;;;3.72;1.83;;;;;;;15.61;64.10;102732.41;5024557;28;20021;-59
2022/07/17 02:10:34;;;;;;;8.02;1.90;;;;;;;15.56;63.89;102725.31;5030716;28;20034;-56
2022/07/17 02:13:00;;;;;;;6.95;1.88;;;;;;;15.61;64.20;102725.50;5028000;28;20029;-56
2022/07/17 02:15:26;;;;;;;8.25;2.30;;;;;;;15.60;63.67;102722.88;5021240;28;20092;-58
2022/07/17 02:17:51;;;;;;;9.57;2.13;;;;;;;15.54;64.14;102729.59;5024737;28;20558;-59
2022/07/17 02:20:16;;;;;;;5.30;2.00;;;;;;;15.59;64.03;102732.31;5024211;28;20084;-59
2022/07/17 02:22:42;;;;;;;5.25;2.00;;;;;;;15.64;64.36;102729.94;5023503;28;20021;-55
2022/07/17 02:25:09;;;;;;;5.55;2.05;;;;;;;15.61;63.86;102724.63;5016681;28;20498;-56
2022/07/17 02:27:35;;;;;;;6.43;1.90;;;;;;;15.69;63.76;102726.69;5047090;28;20030;-59
2022/07/17 02:30:06;;;;;;;7.97;2.33;;;;;;;15.69;63.49;102733.59;5017381;28;20402;-54
2022/07/17 02:32:31;;;;;;;6.60;2.00;;;;;;;15.71;63.61;102738.03;5018973;28;20030;-59
2022/07/17 02:34:56;;;;;;;5.97;2.00;;;;;;;15.66;63.79;102738.69;5023537;28;20234;-59
2022/07/17 02:37:22;;;;;;;2.92;1.80;;;;;;;15.65;63.53;102739.47;5027490;28;20041;-59
2022/07/17 02:39:53;;;;;;;5.43;1.80;;;;;;;15.58;63.98;102735.75;5028240;28;20051;-59
2022/07/17 02:42:24;;;;;;;8.52;2.30;;;;;;;15.61;63.87;102724.63;5030134;28;20102;-52
2022/07/17 02:44:50;;;;;;;8.55;2.28;;;;;;;15.53;64.12;102711.34;5026141;28;20074;-59
2022/07/17 02:47:23;;;;;;;6.78;2.10;;;;;;;15.56;64.08;102716.66;5023305;28;20107;-59
2022/07/17 02:49:49;;;;;;;4.60;2.13;;;;;;;15.44;64.55;102716.22;5019820;28;20469;-53
2022/07/17 02:52:15;;;;;;;5.80;1.98;;;;;;;15.43;64.38;102710.16;5030273;28;20091;-59
2022/07/17 02:54:41;;;;;;;6.40;2.50;;;;;;;15.38;65.06;102714.25;5022978;28;20045;-55
2022/07/17 02:57:06;;;;;;;7.03;2.28;;;;;;;15.32;64.85;102719.22;5030220;28;20026;-59
2022/07/17 02:59:31;;;;;;;7.85;2.75;;;;;;;15.47;64.55;102718.91;5028745;28;20041;-59
2022/07/17 03:01:57;;;;;;;6.03;2.33;;;;;;;15.43;64.85;102727.41;5027551;28;20108;-52
2022/07/17 03:04:22;;;;;;;7.22;2.20;;;;;;;15.32;64.70;102727.00;5027766;28;20033;-58
2022/07/17 03:06:47;;;;;;;9.60;2.60;;;;;;;15.25;64.67;102735.38;5023221;28;20025;-59
2022/07/17 03:09:13;;;;;;;4.55;2.28;;;;;;;15.22;65.20;102738.69;5024425;28;20512;-54
2022/07/17 03:11:38;;;;;;;8.50;2.40;;;;;;;15.25;65.34;102740.56;5026535;28;20037;-59
2022/07/17 03:14:03;;;;;;;9.48;2.83;;;;;;;15.16;65.48;102733.28;5030012;28;20029;-51
2022/07/17 03:16:29;;;;;;;5.93;2.55;;;;;;;15.19;65.72;102741.19;5026018;28;20038;-55
2022/07/17 03:18:54;;;;;;;6.53;2.58;;;;;;;15.12;65.96;102743.50;5024228;28;20030;-45
2022/07/17 03:21:19;;;;;;;5.80;2.40;;;;;;;15.16;65.43;102735.00;5025486;28;20045;-49
2022/07/17 03:23:45;;;;;;;6.53;2.60;;;;;;;15.06;65.25;102735.47;5025151;28;20037;-59
2022/07/17 03:26:10;;;;;;;6.80;2.95;;;;;;;15.07;65.56;102739.84;5023363;28;20026;-59
2022/07/17 03:28:35;;;;;;;7.25;2.30;;;;;;;15.11;65.72;102731.38;5029584;28;20032;-55
2022/07/17 03:31:01;;;;;;;5.68;2.30;;;;;;;15.08;65.83;102736.41;5023768;28;20033;-58
2022/07/17 03:33:26;;;;;;;8.13;2.53;;;;;;;15.14;65.83;102741.84;5029551;28;20029;-48
2022/07/17 03:35:52;;;;;;;5.25;2.20;;;;;;;15.04;65.85;102740.56;5028975;28;20053;-54
2022/07/17 03:38:17;;;;;;;5.72;2.10;;;;;;;14.93;66.36;102727.22;5027810;28;20025;-58
2022/07/17 03:40:43;;;;;;;7.05;2.40;;;;;;;14.94;66.43;102723.81;5026877;28;20120;-55
2022/07/17 03:43:08;;;;;;;6.03;2.33;;;;;;;14.92;66.24;102724.53;5026546;28;20037;-57
2022/07/17 03:45:33;;;;;;;6.47;2.38;;;;;;;15.00;66.18;102725.75;5027080;28;20383;-58
2022/07/17 03:47:59;;;;;;;4.60;2.30;;;;;;;14.95;66.06;102730.75;5021484;28;20117;-59
2022/07/17 03:50:24;;;;;;;5.85;1.95;;;;;;;15.01;65.81;102724.94;5024862;28;20056;-59
2022/07/17 03:52:50;;;;;;;8.32;2.10;;;;;;;14.96;66.11;102729.03;5017957;28;20465;-60
2022/07/17 03:55:15;;;;;;;5.30;2.00;;;;;;;14.97;66.13;102730.81;5026493;28;20032;-60
2022/07/17 03:57:40;;;;;;;7.47;2.50;;;;;;;14.91;66.65;102731.44;5023495;28;20220;-58
2022/07/17 04:00:07;;;;;;;7.28;2.25;;;;;;;14.82;66.61;102738.84;5021143;28;20038;-56
2022/07/17 04:02:32;;;;;;;5.63;2.17;;;;;;;14.87;66.62;102746.81;5032173;28;20018;-59
2022/07/17 04:04:58;;;;;;;10.57;2.60;;;;;;;14.84;66.60;102755.31;5024752;28;20524;-57
2022/07/17 04:07:30;;;;;;;10.43;2.58;;;;;;;14.82;66.63;102744.03;5029733;28;20043;-59
2022/07/17 04:09:57;;;;;;;9.65;2.30;;;;;;;14.82;67.02;102746.63;5021222;28;20030;-59
2022/07/17 04:12:23;;;;;;;5.18;2.30;;;;;;;14.81;66.64;102746.56;5021511;28;20034;-52
2022/07/17 04:14:49;;;;;;;6.35;2.40;;;;;;;14.78;67.24;102747.31;5027197;28;20084;-54
2022/07/17 04:17:15;;;;;;;6.72;2.33;;;;;;;14.77;66.98;102740.38;5018722;28;20462;-58
2022/07/17 04:19:40;;;;;;;7.60;2.72;;;;;;;14.73;67.33;102748.81;5027740;28;20025;-56
2022/07/17 04:22:05;;;;;;;8.15;2.20;;;;;;;14.80;67.18;102750.84;5016452;28;20058;-62
2022/07/17 04:24:31;;;;;;;7.80;2.53;;;;;;;14.81;67.63;102757.81;5019978;28;20022;-60
2022/07/17 04:26:56;;;;;;;7.15;2.45;;;;;;;14.70;67.54;102761.66;5020229;28;20464;-56
2022/07/17 04:29:21;;;;;;;6.35;2.60;;;;;;;14.71;67.34;102750.47;5026538;28;20168;-60
2022/07/17 04:31:47;;;;;;;7.07;2.97;;;;;;;14.70;68.30;102749.59;5019414;28;20045;-59
2022/07/17 04:34:15;;;;;;;7.80;2.35;;;;;;;14.77;67.67;102750.72;5021271;28;20096;-60
2022/07/17 04:36:40;;;;;;;8.97;2.53;;;;;;;14.70;68.41;102749.59;5024393;28;20117;-59
2022/07/17 04:39:06;;;;;;;8.93;2.75;;;;;;;14.71;68.29;102750.47;5023287;28;20708;-58
2022/07/17 04:41:31;;;;;;;6.38;2.50;;;;;;;14.68;68.33;102756.44;5025401;28;20049;-59
2022/07/17 04:43:56;;;;;;;12.38;2.75;;;;;;;14.74;68.10;102761.84;5021572;28;20053;-54
2022/07/17 04:46:22;;;;;;;6.45;2.72;;;;;;;14.77;68.28;102761.09;5024545;28;20718;-58
2022/07/17 04:48:47;;;;;;;8.15;2.80;;;;;;;14.75;67.80;102757.56;5027704;28;20040;-60
2022/07/17 04:51:13;;;;;;;6.55;2.70;;;;;;;14.75;67.84;102754.97;5022887;28;20026;-59
2022/07/17 04:53:38;;;;;;;6.35;2.65;;;;;;;14.82;68.13;102763.88;5023732;28;20026;-51
2022/07/17 04:56:04;;;;;;;10.50;2.95;;;;;;;14.78;68.21;102773.22;5019608;28;20173;-58
2022/07/17 04:58:29;;;;;;;11.30;3.08;;;;;;;14.81;68.42;102775.06;5025693;28;20033;-58
2022/07/17 05:00:55;;;;;;;10.98;3.25;;;;;;;14.92;68.60;102769.47;5027848;28;20037;-57
2022/07/17 05:03:20;;;;;;;10.10;3.00;;;;;;;14.95;67.86;102763.53;5026273;28;20054;-59
2022/07/17 05:05:45;;;;;;;8.50;2.60;;;;;;;14.99;67.53;102766.31;5025526;28;20061;-56
2022/07/17 05:08:11;;;;;;;8.05;2.78;;;;;;;15.05;67.43;102768.28;5026074;28;20040;-57
2022/07/17 05:10:36;;;;;;;9.20;2.72;;;;;;;15.09;67.35;102758.91;5023536;28;20083;-59
2022/07/17 05:13:02;;;;;;;7.63;2.90;;;;;;;15.09;67.88;102764.09;5019831;28;20030;-59
2022/07/17 05:15:27;;;;;;;6.07;2.80;;;;;;;15.14;67.35;102759.97;5023560;28;20025;-59
2022/07/17 05:17:53;;;;;;;9.15;3.10;;;;;;;15.17;67.25;102767.88;5023857;28;20495;-61
2022/07/17 05:20:18;;;;;;;8.35;3.42;;;;;;;15.23;66.96;102769.00;5023836;28;20032;-60
2022/07/17 05:22:43;;;;;;;6.93;2.92;;;;;;;15.28;66.86;102766.56;5022157;28;20037;-52
2022/07/17 05:25:09;;;;;;;7.03;2.72;;;;;;;15.36;66.63;102759.13;5024688;28;20030;-60
2022/07/17 05:27:34;;;;;;;5.82;2.67;;;;;;;15.43;66.57;102761.13;5023024;28;20022;-59
2022/07/17 05:30:00;;;;;;;10.95;3.13;;;;;;;15.51;66.35;102776.13;5021684;28;20029;-60
2022/07/17 05:32:25;;;;;;;7.57;2.80;;;;;;;15.54;65.85;102772.78;5020394;28;20094;-59
2022/07/17 05:34:50;;;;;;;9.13;3.17;;;;;;;15.62;66.03;102761.00;5023076;28;20046;-59
2022/07/17 05:37:16;;;;;;;10.23;3.33;;;;;;;15.65;65.59;102768.00;5020113;28;20041;-50
2022/07/17 05:39:41;;;;;;;7.25;2.45;;;;;;;15.75;65.52;102770.13;5028910;28;20080;-59
2022/07/17 05:42:06;;;;;;;6.97;2.53;;;;;;;15.74;64.78;102769.25;5022268;28;20105;-55
2022/07/17 05:44:32;;;;;;;8.93;2.60;;;;;;;15.84;65.15;102767.00;5024517;28;20038;-59
2022/07/17 05:46:57;;;;;;;6.90;2.42;;;;;;;15.88;64.07;102761.97;5023359;28;21096;-58
2022/07/17 05:49:23;;;;;;;7.28;2.63;;;;;;;15.88;63.88;102761.09;5026077;28;20045;-60
2022/07/17 05:51:48;;;;;;;8.52;2.60;;;;;;;15.96;64.21;102762.25;5026442;28;20421;-50
2022/07/17 05:54:13;;;;;;;7.90;2.70;;;;;;;16.04;64.25;102764.28;5022961;28;20036;-53
2022/07/17 05:56:39;;;;;;;9.73;2.88;;;;;;;16.15;63.69;102753.41;5022083;28;20094;-59
2022/07/17 05:59:04;;;;;;;9.20;2.67;;;;;;;16.18;63.39;102761.28;5019539;28;20112;-60
2022/07/17 06:01:30;;;;;;;6.45;2.60;;;;;;;16.25;62.87;102755.47;5019496;28;20036;-59
2022/07/17 06:03:55;;;;;;;6.30;2.83;;;;;;;16.32;63.11;102744.50;5022210;28;20509;-58
2022/07/17 06:06:23;;;;;;;4.57;2.30;;;;;;;16.41;62.79;102747.41;5022337;28;20083;-60
2022/07/17 06:08:48;;;;;;;7.60;2.72;;;;;;;16.50;62.54;102746.81;5024594;28;20545;-59
2022/07/17 06:11:14;;;;;;;5.88;2.60;;;;;;;16.58;62.40;102741.06;5027139;28;20124;-54
2022/07/17 06:13:39;;;;;;;10.70;2.90;;;;;;;16.66;61.76;102735.25;5024787;28;20394;-60
2022/07/17 06:16:05;;;;;;;8.73;2.80;;;;;;;16.77;61.47;102723.53;5027556;28;20042;-60
2022/07/17 06:18:30;;;;;;;8.65;3.15;;;;;;;16.92;61.25;102725.72;5026578;28;20026;-60
2022/07/17 06:20:55;;;;;;;7.63;2.88;;;;;;;17.03;61.11;102727.81;5028701;28;20540;-54
2022/07/17 06:23:21;;;;;;;8.90;2.95;;;;;;;17.10;60.50;102742.75;5027733;28;20705;-60
2022/07/17 06:25:46;;;;;;;8.20;2.90;;;;;;;17.15;60.75;102748.97;5028726;28;20486;-59
2022/07/17 06:28:11;;;;;;;8.05;2.70;;;;;;;17.22;59.86;102759.56;5022520;28;20044;-60
2022/07/17 06:30:37;;;;;;;9.93;3.15;;;;;;;17.28;59.65;102762.34;5028527;28;20087;-56
2022/07/17 06:33:03;;;;;;;9.70;3.20;;;;;;;17.33;59.67;102763.38;5021995;28;20100;-59
2022/07/17 06:35:30;;;;;;;6.32;2.63;;;;;;;17.39;59.14;102754.03;5022044;28;20073;-56
2022/07/17 06:37:56;;;;;;;7.45;3.00;;;;;;;17.43;58.82;102755.91;5024870;28;20030;-59
2022/07/17 06:40:22;;;;;;;7.30;2.72;;;;;;;17.55;58.99;102760.59;5028013;28;20029;-56
2022/07/17 06:42:48;;;;;;;10.73;3.30;;;;;;;17.62;58.79;102769.47;5027657;28;20043;-58
2022/07/17 06:45:13;;;;;;;4.13;2.17;;;;;;;17.70;58.50;102766.22;5026574;28;20132;-63
2022/07/17 06:47:39;;;;;;;8.02;2.88;;;;;;;17.81;58.49;102781.31;5025600;28;20037;-45
2022/07/17 06:50:05;;;;;;;6.30;2.65;;;;;;;17.88;57.86;102780.66;5030960;28;20044;-59
2022/07/17 06:52:30;;;;;;;7.47;2.95;;;;;;;18.00;58.21;102778.38;5026032;28;20038;-59
2022/07/17 06:54:56;;;;;;;7.97;3.00;;;;;;;18.09;58.35;102778.66;5030140;28;20504;-59
2022/07/17 06:57:21;;;;;;;8.93;3.20;;;;;;;18.17;58.21;102784.94;5030418;28;20029;-59
2022/07/17 06:59:47;;;;;;;7.85;2.83;;;;;;;18.30;57.96;102780.06;5022149;28;20056;-60
2022/07/17 07:02:12;;;;;;;8.30;3.10;;;;;;;18.37;58.09;102790.69;5023147;28;20041;-60
2022/07/17 07:04:37;;;;;;;7.53;3.10;;;;;;;18.44;58.57;102789.13;5026484;28;20033;-56
2022/07/17 07:07:03;;;;;;;7.00;2.95;;;;;;;18.60;57.99;102793.91;5024232;28;20104;-59
2022/07/17 07:09:28;;;;;;;9.50;3.10;;;;;;;18.62;56.93;102799.13;5025104;28;20036;-59
2022/07/17 07:11:54;;;;;;;6.47;2.70;;;;;;;18.81;57.27;102803.13;5026011;28;20029;-59
2022/07/17 07:14:19;;;;;;;6.38;2.80;;;;;;;18.81;57.01;102806.63;5025254;28;20040;-54
2022/07/17 07:16:44;;;;;;;5.57;2.45;;;;;;;18.94;57.29;102800.88;5028059;28;20030;-59
2022/07/17 07:19:10;;;;;;;5.40;2.80;;;;;;;19.06;56.78;102802.91;5023368;28;20025;-60
2022/07/17 07:21:35;;;;;;;7.38;2.63;;;;;;;19.04;56.36;102788.91;5029064;28;20029;-57
2022/07/17 07:24:01;;;;;;;7.47;2.80;;;;;;;19.14;56.24;102796.13;5029695;28;20029;-59
2022/07/17 07:26:27;;;;;;;10.45;2.95;;;;;;;19.18;54.78;102791.88;5028344;28;20730;-60
2022/07/17 07:28:53;;;;;;;19.23;9.60;;;;;;;19.15;55.53;102797.00;5027540;28;20113;-62
2022/07/17 07:31:18;;;;;;;6.40;2.90;;;;;;;19.28;54.70;102793.81;5012704;28;20117;-59
2022/07/17 07:33:44;;;;;;;6.28;2.35;;;;;;;19.26;55.04;102796.41;5021409;28;20474;-59
2022/07/17 07:36:10;;;;;;;8.90;2.40;;;;;;;19.38;54.96;102801.03;5019670;28;20033;-54
2022/07/17 07:38:36;;;;;;;8.13;2.20;;;;;;;19.41;53.92;102795.84;5017984;28;20039;-59
2022/07/17 07:41:02;;;;;;;5.65;1.90;;;;;;;19.52;53.87;102799.59;5015099;28;20033;-59
2022/07/17 07:43:27;;;;;;;6.18;2.20;;;;;;;19.56;53.61;102788.38;5027400;28;20036;-60
2022/07/17 07:45:53;;;;;;;6.63;2.17;;;;;;;19.65;53.88;102800.75;5027421;28;20546;-60
2022/07/17 07:48:18;;;;;;;5.53;2.20;;;;;;;19.75;54.40;102788.81;5020575;28;20068;-60
2022/07/17 07:50:44;;;;;;;7.32;2.53;;;;;;;19.85;53.44;102802.94;5021073;28;20852;-53
2022/07/17 07:53:09;;;;;;;4.75;1.90;;;;;;;19.93;52.29;102809.19;5019520;28;20041;-56
2022/07/17 07:55:35;;;;;;;6.65;2.17;;;;;;;19.90;51.77;102801.28;5010938;28;20045;-60
2022/07/17 07:58:08;;;;;;;6.20;2.20;;;;;;;20.03;52.60;102813.75;5023481;28;20033;-59
2022/07/17 08:00:34;;;;;;;7.72;2.13;;;;;;;19.98;52.27;102807.56;5017918;28;20513;-61
2022/07/17 08:03:00;;;;;;;11.43;2.22;;;;;;;20.09;52.29;102806.03;5023217;28;20040;-61
2022/07/17 08:05:25;;;;;;;8.95;2.50;;;;;;;20.11;53.01;102812.16;5020485;28;20123;-56
2022/07/17 08:07:51;;;;;;;6.72;2.33;;;;;;;20.10;52.32;102815.63;5020312;28;20025;-60
2022/07/17 08:10:17;;;;;;;10.82;2.58;;;;;;;20.17;52.52;102820.13;5017523;28;20493;-55
2022/07/17 08:12:42;;;;;;;9.82;2.50;;;;;;;20.26;52.31;102817.69;5023374;28;20025;-59
2022/07/17 08:15:08;;;;;;;8.13;2.20;;;;;;;20.27;53.12;102811.63;5019298;28;20113;-59
2022/07/17 08:17:33;;;;;;;8.10;2.60;;;;;;;20.32;53.53;102819.50;5015251;28;20029;-60
2022/07/17 08:19:59;;;;;;;7.35;2.50;;;;;;;20.33;52.24;102808.25;5019439;28;20079;-53
2022/07/17 08:22:24;;;;;;;4.57;2.05;;;;;;;20.39;51.52;102807.47;5019481;28;20084;-59
2022/07/17 08:24:49;;;;;;;5.85;2.20;;;;;;;20.36;51.08;102803.94;5013078;28;20119;-58
2022/07/17 08:27:15;;;;;;;9.95;2.30;;;;;;;20.49;50.97;102806.81;5025916;28;20112;-60
2022/07/17 08:29:40;;;;;;;6.43;1.92;;;;;;;20.52;51.62;102804.25;5024939;28;20044;-60
2022/07/17 08:32:06;;;;;;;10.90;1.98;;;;;;;20.51;49.27;102798.16;5026639;28;20025;-57
2022/07/17 08:34:31;;;;;;;8.85;1.92;;;;;;;20.58;49.45;102804.38;5020570;28;20056;-57
2022/07/17 08:36:57;;;;;;;9.48;2.00;;;;;;;20.66;50.19;102807.97;5024529;28;20529;-59
2022/07/17 08:39:22;;;;;;;7.38;1.50;;;;;;;20.81;50.88;102812.56;5022591;28;20022;-58
2022/07/17 08:41:48;;;;;;;5.47;1.73;;;;;;;20.81;50.37;102804.72;5024100;28;20040;-55
2022/07/17 08:44:13;;;;;;;7.03;1.85;;;;;;;20.79;49.05;102811.69;5025406;28;20462;-56
2022/07/17 08:46:39;;;;;;;8.45;2.20;;;;;;;20.79;49.33;102803.84;5019184;28;20017;-59
2022/07/17 08:49:06;;;;;;;8.90;2.38;;;;;;;20.77;50.10;102809.06;5023789;28;20455;-59
2022/07/17 08:51:33;;;;;;;8.15;2.17;;;;;;;20.79;50.09;102803.84;5023533;28;20096;-59
2022/07/17 08:53:59;;;;;;;6.50;1.70;;;;;;;20.92;50.47;102802.31;5021154;28;20398;-52
2022/07/17 08:56:26;;;;;;;7.28;2.05;;;;;;;20.93;50.53;102806.66;5021951;28;20042;-50
2022/07/17 08:58:51;;;;;;;6.18;2.00;;;;;;;20.99;49.50;102804.16;5022787;28;20432;-58
2022/07/17 09:01:19;;;;;;;6.68;1.67;;;;;;;21.10;49.43;102798.22;5022853;28;20037;-54
2022/07/17 09:04:00;;;;;;;4.55;1.40;;;;;;;21.14;49.01;102794.81;5018649;28;20042;-59
2022/07/17 09:06:26;;;;;;;7.05;1.80;;;;;;;21.10;47.56;102799.97;5017822;28;20029;-55
2022/07/17 09:09:04;;;;;;;7.65;1.85;;;;;;;21.18;48.01;102798.38;5021038;28;20437;-57
2022/07/17 09:11:29;;;;;;;6.60;1.50;;;;;;;21.15;46.98;102804.41;5028593;28;20022;-59
2022/07/17 09:13:56;;;;;;;6.80;1.80;;;;;;;21.25;47.55;102805.44;5024839;28;20026;-57
2022/07/17 09:16:23;;;;;;;6.88;1.70;;;;;;;21.25;45.74;102794.97;5020547;28;20034;-55
2022/07/17 09:18:57;;;;;;;5.10;1.38;;;;;;;21.30;47.84;102801.19;5024359;28;20086;-60
2022/07/17 09:21:25;;;;;;;5.28;1.40;;;;;;;21.34;46.64;102799.50;5027156;28;20034;-60
2022/07/17 09:24:04;;;;;;;7.00;1.30;;;;;;;21.38;46.46;102802.19;5025596;28;20078;-59
2022/07/17 09:26:30;;;;;;;6.72;1.73;;;;;;;21.37;46.19;102795.19;5020716;28;20030;-53
2022/07/17 09:28:56;;;;;;;8.55;1.52;;;;;;;21.44;45.30;102796.16;5018393;28;20033;-59
2022/07/17 09:31:29;;;;;;;6.00;1.38;;;;;;;21.47;46.51;102796.19;5020515;28;20029;-60
2022/07/17 09:33:55;;;;;;;4.22;1.50;;;;;;;21.63;45.15;102779.81;5024370;28;20040;-47
2022/07/17 09:36:22;;;;;;;5.93;1.30;;;;;;;21.72;47.22;102779.06;5023138;28;20095;-59
2022/07/17 09:38:51;;;;;;;6.50;1.58;;;;;;;21.71;45.44;102777.28;5026571;28;20029;-59
2022/07/17 09:41:20;;;;;;;5.30;1.52;;;;;;;21.76;44.16;102777.34;5022750;28;20117;-45
2022/07/17 09:43:57;;;;;;;5.35;1.48;;;;;;;21.77;42.89;102779.09;5025985;28;20083;-54
2022/07/17 09:46:31;;;;;;;9.40;1.70;;;;;;;21.79;44.43;102775.66;5019865;28;20538;-58
2022/07/17 09:49:01;;;;;;;5.88;1.52;;;;;;;21.87;45.37;102773.13;5024980;28;20029;-59
2022/07/17 09:51:33;;;;;;;3.80;1.40;;;;;;;22.01;44.56;102779.38;5019414;28;20026;-48
2022/07/17 09:54:02;;;;;;;8.27;1.60;;;;;;;22.10;44.42;102778.66;5020649;28;20564;-60
2022/07/17 09:56:29;;;;;;;7.57;1.65;;;;;;;22.07;44.00;102789.94;5018414;28;20049;-59
2022/07/17 09:59:07;;;;;;;4.28;1.50;;;;;;;22.08;43.71;102786.44;5022569;28;20072;-58
2022/07/17 10:01:33;;;;;;;6.38;1.60;;;;;;;22.13;43.56;102794.41;5017413;28;20028;-59
2022/07/17 10:03:58;;;;;;;5.22;1.58;;;;;;;22.09;43.96;102783.03;5021529;28;20478;-58
2022/07/17 10:06:25;;;;;;;4.03;1.42;;;;;;;22.09;41.64;102783.03;5022789;28;20032;-59
2022/07/17 10:08:52;;;;;;;7.38;1.40;;;;;;;22.19;43.04;102789.22;5028187;28;20030;-56
2022/07/17 10:11:23;;;;;;;4.50;1.50;;;;;;;22.11;42.44;102786.53;5024147;28;20498;-58
2022/07/17 10:13:52;;;;;;;4.60;1.42;;;;;;;22.16;42.18;102790.09;5019133;28;20030;-59
2022/07/17 10:16:29;;;;;;;4.72;1.40;;;;;;;22.21;42.94;102792.75;5021595;28;20030;-59
2022/07/17 10:18:57;;;;;;;4.43;1.48;;;;;;;22.30;42.36;102790.22;5028224;28;20074;-51
2022/07/17 10:21:24;;;;;;;6.40;1.77;;;;;;;22.32;43.05;102779.75;5026997;28;20033;-47
2022/07/17 10:23:52;;;;;;;6.68;1.40;;;;;;;22.38;43.22;102788.53;5021988;28;20101;-60
2022/07/17 10:26:31;;;;;;;5.10;1.80;;;;;;;22.41;42.91;102796.44;5017181;28;20683;-59
2022/07/17 10:28:56;;;;;;;4.97;1.40;;;;;;;22.47;44.54;102790.38;5019931;28;20036;-58
2022/07/17 10:31:24;;;;;;;4.00;1.50;;;;;;;22.49;43.00;102789.53;5018217;28;20038;-58
2022/07/17 10:34:01;;;;;;;4.35;1.30;;;;;;;22.57;43.16;102789.63;5021214;28;20060;-59
2022/07/17 10:36:33;;;;;;;5.50;1.30;;;;;;;22.61;43.18;102786.13;5022154;28;20409;-59
2022/07/17 10:39:12;;;;;;;6.38;1.60;;;;;;;22.60;43.29;102789.63;5021447;28;20461;-60
2022/07/17 10:41:39;;;;;;;5.47;1.50;;;;;;;22.67;42.75;102787.94;5023535;28;20501;-56
2022/07/17 10:44:04;;;;;;;5.68;1.85;;;;;;;22.61;42.88;102777.41;5034023;28;20038;-59
2022/07/17 10:46:29;;;;;;;5.22;1.40;;;;;;;22.65;42.91;102784.44;5018950;28;20025;-55
2022/07/17 10:48:56;;;;;;;5.35;1.52;;;;;;;22.74;44.65;102787.09;5018747;28;20029;-57
2022/07/17 10:51:25;;;;;;;3.58;1.48;;;;;;;22.79;43.60;102784.53;5024511;28;20569;-55
2022/07/17 10:53:50;;;;;;;5.97;1.50;;;;;;;;;;5024993;28;20432;-53
2022/07/17 10:56:17;;;;;;;3.35;1.10;;;;;;;22.76;37.37;102788.03;5024715;28;20125;-60
2022/07/17 10:58:44;;;;;;;4.07;1.00;;;;;;;22.81;37.74;102777.53;5025121;28;20056;-55
2022/07/17 11:01:17;;;;;;;7.00;1.42;;;;;;;22.91;38.35;102775.03;5022129;28;20045;-53
2022/07/17 11:03:49;;;;;;;4.65;1.17;;;;;;;22.92;39.18;102784.66;5028638;28;20026;-60
2022/07/17 11:06:16;;;;;;;5.88;1.73;;;;;;;22.97;38.78;102782.06;5023784;28;20513;-58
2022/07/17 11:09:00;;;;;;;4.32;1.35;;;;;;;23.00;39.11;102783.00;5026635;28;20052;-58
2022/07/17 11:11:39;;;;;;;3.83;1.30;;;;;;;23.04;40.09;102783.00;5023933;28;20116;-57
2022/07/17 11:14:07;;;;;;;4.95;1.30;;;;;;;23.11;40.56;102784.78;5025252;28;20032;-59
2022/07/17 11:16:33;;;;;;;5.60;1.30;;;;;;;23.14;39.16;102788.31;5021876;28;20620;-58
2022/07/17 11:18:58;;;;;;;5.97;1.10;;;;;;;23.16;39.29;102785.69;5025867;28;20049;-59
2022/07/17 11:21:24;;;;;;;6.70;1.20;;;;;;;23.31;39.76;102780.56;5020609;28;20030;-54